sensor_id;sensor_type;location;lat;lon;timestamp;P1;durP1;ratioP1;P2;durP2;ratioP2
23140;SDS011;11739;54.750;9.124;2023-05-07T00:01:40;7.97;;;5.18;;
23140;SDS011;11739;54.750;9.124;2023-05-07T00:04:05;11.07;;;5.28;;
23140;SDS011;11739;54.750;9.124;2023-05-07T00:06:31;9.25;;;5.22;;
23140;SDS011;11739;54.750;9.124;2023-05-07T00:08:57;14.73;;;5.22;;
23140;SDS011;11739;54.750;9.124;2023-05-07T00:11:23;9.23;;;5.50;;
23140;SDS011;11739;54.750;9.124;2023-05-07T00:13:48;12.32;;;4.82;;
23140;SDS011;11739;54.750;9.124;2023-05-07T00:16:14;12.32;;;6.10;;
23140;SDS011;11739;54.750;9.124;2023-05-07T00:18:39;11.52;;;5.53;;
23140;SDS011;11739;54.750;9.124;2023-05-07T00:21:04;9.75;;;5.38;;
23140;SDS011;11739;54.750;9.124;2023-05-07T00:23:30;7.22;;;5.35;;
23140;SDS011;11739;54.750;9.124;2023-05-07T00:25:55;8.95;;;5.28;;
23140;SDS011;11739;54.750;9.124;2023-05-07T00:28:21;8.68;;;5.90;;
23140;SDS011;11739;54.750;9.124;2023-05-07T00:30:46;9.73;;;5.25;;
23140;SDS011;11739;54.750;9.124;2023-05-07T00:33:11;7.70;;;4.80;;
23140;SDS011;11739;54.750;9.124;2023-05-07T00:35:36;9.27;;;5.82;;
23140;SDS011;11739;54.750;9.124;2023-05-07T00:38:02;9.18;;;5.35;;
23140;SDS011;11739;54.750;9.124;2023-05-07T00:40:27;9.40;;;5.07;;
23140;SDS011;11739;54.750;9.124;2023-05-07T00:42:53;10.82;;;5.38;;
23140;SDS011;11739;54.750;9.124;2023-05-07T00:45:19;11.27;;;5.15;;
23140;SDS011;11739;54.750;9.124;2023-05-07T00:47:44;8.38;;;5.53;;
23140;SDS011;11739;54.750;9.124;2023-05-07T00:50:09;9.60;;;5.13;;
23140;SDS011;11739;54.750;9.124;2023-05-07T00:52:35;10.40;;;5.45;;
23140;SDS011;11739;54.750;9.124;2023-05-07T00:55:02;9.45;;;5.20;;
23140;SDS011;11739;54.750;9.124;2023-05-07T00:57:29;8.85;;;5.53;;
23140;SDS011;11739;54.750;9.124;2023-05-07T00:59:58;10.18;;;5.50;;
23140;SDS011;11739;54.750;9.124;2023-05-07T01:02:23;7.45;;;5.40;;
23140;SDS011;11739;54.750;9.124;2023-05-07T01:04:48;12.35;;;5.60;;
23140;SDS011;11739;54.750;9.124;2023-05-07T01:07:14;9.98;;;5.68;;
23140;SDS011;11739;54.750;9.124;2023-05-07T01:09:39;7.22;;;4.95;;
23140;SDS011;11739;54.750;9.124;2023-05-07T01:12:04;8.32;;;5.35;;
23140;SDS011;11739;54.750;9.124;2023-05-07T01:14:31;7.55;;;4.80;;
23140;SDS011;11739;54.750;9.124;2023-05-07T01:16:56;8.73;;;4.97;;
23140;SDS011;11739;54.750;9.124;2023-05-07T01:19:22;8.10;;;5.47;;
23140;SDS011;11739;54.750;9.124;2023-05-07T01:21:47;8.15;;;5.63;;
23140;SDS011;11739;54.750;9.124;2023-05-07T01:24:14;7.55;;;5.35;;
23140;SDS011;11739;54.750;9.124;2023-05-07T01:26:40;11.25;;;5.03;;
23140;SDS011;11739;54.750;9.124;2023-05-07T01:29:05;8.45;;;5.55;;
23140;SDS011;11739;54.750;9.124;2023-05-07T01:31:31;8.50;;;5.68;;
23140;SDS011;11739;54.750;9.124;2023-05-07T01:33:57;11.25;;;5.85;;
23140;SDS011;11739;54.750;9.124;2023-05-07T01:36:24;10.18;;;5.40;;
23140;SDS011;11739;54.750;9.124;2023-05-07T01:38:50;9.18;;;5.95;;
23140;SDS011;11739;54.750;9.124;2023-05-07T01:41:15;7.80;;;5.60;;
23140;SDS011;11739;54.750;9.124;2023-05-07T01:43:41;9.15;;;5.63;;
23140;SDS011;11739;54.750;9.124;2023-05-07T01:46:07;7.75;;;5.38;;
23140;SDS011;11739;54.750;9.124;2023-05-07T01:48:33;8.73;;;6.07;;
23140;SDS011;11739;54.750;9.124;2023-05-07T01:50:59;8.98;;;5.53;;
23140;SDS011;11739;54.750;9.124;2023-05-07T01:53:26;8.68;;;5.82;;
23140;SDS011;11739;54.750;9.124;2023-05-07T01:55:52;10.07;;;6.35;;
23140;SDS011;11739;54.750;9.124;2023-05-07T01:58:17;7.88;;;5.38;;
23140;SDS011;11739;54.750;9.124;2023-05-07T02:00:42;8.65;;;5.75;;
23140;SDS011;11739;54.750;9.124;2023-05-07T02:03:08;7.03;;;5.85;;
23140;SDS011;11739;54.750;9.124;2023-05-07T02:05:33;6.82;;;5.65;;
23140;SDS011;11739;54.750;9.124;2023-05-07T02:07:58;7.43;;;5.38;;
23140;SDS011;11739;54.750;9.124;2023-05-07T02:10:24;7.13;;;5.72;;
23140;SDS011;11739;54.750;9.124;2023-05-07T02:12:49;8.77;;;6.00;;
23140;SDS011;11739;54.750;9.124;2023-05-07T02:15:14;8.98;;;6.22;;
23140;SDS011;11739;54.750;9.124;2023-05-07T02:17:58;8.30;;;6.03;;
23140;SDS011;11739;54.750;9.124;2023-05-07T02:20:30;8.25;;;5.88;;
23140;SDS011;11739;54.750;9.124;2023-05-07T02:22:55;9.15;;;6.70;;
23140;SDS011;11739;54.750;9.124;2023-05-07T02:25:21;6.90;;;5.75;;
23140;SDS011;11739;54.750;9.124;2023-05-07T02:27:46;8.57;;;6.60;;
23140;SDS011;11739;54.750;9.124;2023-05-07T02:30:11;9.00;;;6.95;;
23140;SDS011;11739;54.750;9.124;2023-05-07T02:32:37;8.15;;;6.18;;
23140;SDS011;11739;54.750;9.124;2023-05-07T02:35:02;7.43;;;6.63;;
23140;SDS011;11739;54.750;9.124;2023-05-07T02:37:28;7.35;;;6.15;;
23140;SDS011;11739;54.750;9.124;2023-05-07T02:39:53;9.45;;;6.38;;
23140;SDS011;11739;54.750;9.124;2023-05-07T02:42:18;9.93;;;6.65;;
23140;SDS011;11739;54.750;9.124;2023-05-07T02:44:43;8.77;;;6.80;;
23140;SDS011;11739;54.750;9.124;2023-05-07T02:47:09;7.35;;;6.65;;
23140;SDS011;11739;54.750;9.124;2023-05-07T02:49:34;7.72;;;7.00;;
23140;SDS011;11739;54.750;9.124;2023-05-07T02:51:59;10.88;;;7.22;;
23140;SDS011;11739;54.750;9.124;2023-05-07T02:54:25;9.68;;;6.85;;
23140;SDS011;11739;54.750;9.124;2023-05-07T02:56:50;7.60;;;6.90;;
23140;SDS011;11739;54.750;9.124;2023-05-07T02:59:15;9.25;;;6.88;;
23140;SDS011;11739;54.750;9.124;2023-05-07T03:01:41;7.85;;;7.03;;
23140;SDS011;11739;54.750;9.124;2023-05-07T03:04:06;8.02;;;7.18;;
23140;SDS011;11739;54.750;9.124;2023-05-07T03:06:31;9.93;;;7.35;;
23140;SDS011;11739;54.750;9.124;2023-05-07T03:08:56;7.35;;;6.60;;
23140;SDS011;11739;54.750;9.124;2023-05-07T03:11:22;9.38;;;7.50;;
23140;SDS011;11739;54.750;9.124;2023-05-07T03:13:47;7.93;;;6.88;;
23140;SDS011;11739;54.750;9.124;2023-05-07T03:16:12;9.13;;;7.00;;
23140;SDS011;11739;54.750;9.124;2023-05-07T03:18:38;7.60;;;6.78;;
23140;SDS011;11739;54.750;9.124;2023-05-07T03:21:03;7.47;;;6.47;;
23140;SDS011;11739;54.750;9.124;2023-05-07T03:23:28;7.80;;;7.00;;
23140;SDS011;11739;54.750;9.124;2023-05-07T03:25:54;7.50;;;6.70;;
23140;SDS011;11739;54.750;9.124;2023-05-07T03:28:19;8.02;;;7.00;;
23140;SDS011;11739;54.750;9.124;2023-05-07T03:30:44;9.38;;;7.68;;
23140;SDS011;11739;54.750;9.124;2023-05-07T03:33:09;7.55;;;6.70;;
23140;SDS011;11739;54.750;9.124;2023-05-07T03:35:35;7.97;;;7.18;;
23140;SDS011;11739;54.750;9.124;2023-05-07T03:38:00;8.30;;;7.35;;
23140;SDS011;11739;54.750;9.124;2023-05-07T03:40:25;7.68;;;6.80;;
23140;SDS011;11739;54.750;9.124;2023-05-07T03:42:51;7.80;;;6.90;;
23140;SDS011;11739;54.750;9.124;2023-05-07T03:45:16;9.02;;;7.35;;
23140;SDS011;11739;54.750;9.124;2023-05-07T03:47:41;11.73;;;7.05;;
23140;SDS011;11739;54.750;9.124;2023-05-07T03:50:07;8.88;;;7.35;;
23140;SDS011;11739;54.750;9.124;2023-05-07T03:52:32;7.47;;;6.70;;
23140;SDS011;11739;54.750;9.124;2023-05-07T03:54:57;8.23;;;7.07;;
23140;SDS011;11739;54.750;9.124;2023-05-07T03:57:23;6.93;;;6.22;;
23140;SDS011;11739;54.750;9.124;2023-05-07T03:59:48;7.25;;;6.35;;
23140;SDS011;11739;54.750;9.124;2023-05-07T04:02:13;8.60;;;6.90;;
23140;SDS011;11739;54.750;9.124;2023-05-07T04:04:39;8.10;;;7.30;;
23140;SDS011;11739;54.750;9.124;2023-05-07T04:07:04;9.27;;;7.18;;
23140;SDS011;11739;54.750;9.124;2023-05-07T04:09:29;7.78;;;7.10;;
23140;SDS011;11739;54.750;9.124;2023-05-07T04:11:55;8.80;;;7.35;;
23140;SDS011;11739;54.750;9.124;2023-05-07T04:14:20;7.75;;;7.05;;
23140;SDS011;11739;54.750;9.124;2023-05-07T04:16:45;7.25;;;6.55;;
23140;SDS011;11739;54.750;9.124;2023-05-07T04:19:10;7.68;;;6.90;;
23140;SDS011;11739;54.750;9.124;2023-05-07T04:21:36;8.05;;;7.18;;
23140;SDS011;11739;54.750;9.124;2023-05-07T04:24:03;9.63;;;6.85;;
23140;SDS011;11739;54.750;9.124;2023-05-07T04:26:28;10.00;;;6.90;;
23140;SDS011;11739;54.750;9.124;2023-05-07T04:28:53;7.57;;;6.88;;
23140;SDS011;11739;54.750;9.124;2023-05-07T04:31:19;7.70;;;7.00;;
23140;SDS011;11739;54.750;9.124;2023-05-07T04:33:44;7.78;;;6.97;;
23140;SDS011;11739;54.750;9.124;2023-05-07T04:36:09;8.45;;;7.57;;
23140;SDS011;11739;54.750;9.124;2023-05-07T04:38:35;7.60;;;6.90;;
23140;SDS011;11739;54.750;9.124;2023-05-07T04:41:05;7.60;;;6.80;;
23140;SDS011;11739;54.750;9.124;2023-05-07T04:43:31;7.43;;;6.72;;
23140;SDS011;11739;54.750;9.124;2023-05-07T04:45:56;7.78;;;7.10;;
23140;SDS011;11739;54.750;9.124;2023-05-07T04:48:21;7.82;;;6.75;;
23140;SDS011;11739;54.750;9.124;2023-05-07T04:50:47;8.48;;;6.93;;
23140;SDS011;11739;54.750;9.124;2023-05-07T04:53:13;7.28;;;6.57;;
23140;SDS011;11739;54.750;9.124;2023-05-07T04:55:38;6.93;;;6.32;;
23140;SDS011;11739;54.750;9.124;2023-05-07T04:58:03;8.48;;;7.07;;
23140;SDS011;11739;54.750;9.124;2023-05-07T05:00:29;7.50;;;6.80;;
23140;SDS011;11739;54.750;9.124;2023-05-07T05:02:54;8.13;;;7.43;;
23140;SDS011;11739;54.750;9.124;2023-05-07T05:05:19;7.43;;;6.72;;
23140;SDS011;11739;54.750;9.124;2023-05-07T05:07:45;7.15;;;6.55;;
23140;SDS011;11739;54.750;9.124;2023-05-07T05:10:10;7.68;;;6.97;;
23140;SDS011;11739;54.750;9.124;2023-05-07T05:12:35;7.78;;;7.07;;
23140;SDS011;11739;54.750;9.124;2023-05-07T05:15:00;7.30;;;6.65;;
23140;SDS011;11739;54.750;9.124;2023-05-07T05:17:26;7.40;;;6.70;;
23140;SDS011;11739;54.750;9.124;2023-05-07T05:19:51;7.90;;;7.20;;
23140;SDS011;11739;54.750;9.124;2023-05-07T05:22:16;7.97;;;6.82;;
23140;SDS011;11739;54.750;9.124;2023-05-07T05:24:42;8.02;;;7.22;;
23140;SDS011;11739;54.750;9.124;2023-05-07T05:27:07;7.78;;;7.07;;
23140;SDS011;11739;54.750;9.124;2023-05-07T05:29:32;7.50;;;6.13;;
23140;SDS011;11739;54.750;9.124;2023-05-07T05:31:58;7.80;;;7.10;;
23140;SDS011;11739;54.750;9.124;2023-05-07T05:34:23;7.50;;;6.80;;
23140;SDS011;11739;54.750;9.124;2023-05-07T05:36:48;7.45;;;6.72;;
23140;SDS011;11739;54.750;9.124;2023-05-07T05:39:13;7.43;;;6.70;;
23140;SDS011;11739;54.750;9.124;2023-05-07T05:41:39;7.22;;;6.55;;
23140;SDS011;11739;54.750;9.124;2023-05-07T05:44:04;7.15;;;6.45;;
23140;SDS011;11739;54.750;9.124;2023-05-07T05:46:29;7.50;;;6.82;;
23140;SDS011;11739;54.750;9.124;2023-05-07T05:48:55;7.95;;;7.18;;
23140;SDS011;11739;54.750;9.124;2023-05-07T05:51:20;7.55;;;6.90;;
23140;SDS011;11739;54.750;9.124;2023-05-07T05:53:46;7.57;;;6.88;;
23140;SDS011;11739;54.750;9.124;2023-05-07T05:56:11;7.88;;;7.18;;
23140;SDS011;11739;54.750;9.124;2023-05-07T05:58:36;7.35;;;6.75;;
23140;SDS011;11739;54.750;9.124;2023-05-07T06:01:02;7.25;;;6.65;;
23140;SDS011;11739;54.750;9.124;2023-05-07T06:03:27;8.13;;;6.68;;
23140;SDS011;11739;54.750;9.124;2023-05-07T06:05:53;7.45;;;6.68;;
23140;SDS011;11739;54.750;9.124;2023-05-07T06:08:18;6.90;;;6.10;;
23140;SDS011;11739;54.750;9.124;2023-05-07T06:10:43;7.30;;;6.28;;
23140;SDS011;11739;54.750;9.124;2023-05-07T06:13:08;7.20;;;6.60;;
23140;SDS011;11739;54.750;9.124;2023-05-07T06:15:34;7.15;;;6.50;;
23140;SDS011;11739;54.750;9.124;2023-05-07T06:17:59;7.15;;;6.45;;
23140;SDS011;11739;54.750;9.124;2023-05-07T06:20:24;6.80;;;6.20;;
23140;SDS011;11739;54.750;9.124;2023-05-07T06:22:50;6.85;;;6.25;;
23140;SDS011;11739;54.750;9.124;2023-05-07T06:25:15;7.00;;;6.38;;
23140;SDS011;11739;54.750;9.124;2023-05-07T06:27:40;6.85;;;6.25;;
23140;SDS011;11739;54.750;9.124;2023-05-07T06:30:06;6.38;;;5.78;;
23140;SDS011;11739;54.750;9.124;2023-05-07T06:32:32;6.68;;;6.07;;
23140;SDS011;11739;54.750;9.124;2023-05-07T06:34:57;5.80;;;5.30;;
23140;SDS011;11739;54.750;9.124;2023-05-07T06:37:22;7.03;;;5.70;;
23140;SDS011;11739;54.750;9.124;2023-05-07T06:39:48;5.78;;;5.38;;
23140;SDS011;11739;54.750;9.124;2023-05-07T06:42:13;5.88;;;5.22;;
23140;SDS011;11739;54.750;9.124;2023-05-07T06:44:38;6.32;;;5.72;;
23140;SDS011;11739;54.750;9.124;2023-05-07T06:47:03;5.68;;;5.18;;
23140;SDS011;11739;54.750;9.124;2023-05-07T06:49:29;6.55;;;5.72;;
23140;SDS011;11739;54.750;9.124;2023-05-07T06:51:54;5.70;;;5.20;;
23140;SDS011;11739;54.750;9.124;2023-05-07T06:54:20;6.32;;;5.75;;
23140;SDS011;11739;54.750;9.124;2023-05-07T06:56:45;6.15;;;5.55;;
23140;SDS011;11739;54.750;9.124;2023-05-07T06:59:11;5.82;;;5.25;;
23140;SDS011;11739;54.750;9.124;2023-05-07T07:01:36;6.45;;;5.13;;
23140;SDS011;11739;54.750;9.124;2023-05-07T07:04:01;6.00;;;5.40;;
23140;SDS011;11739;54.750;9.124;2023-05-07T07:06:26;5.60;;;5.18;;
23140;SDS011;11739;54.750;9.124;2023-05-07T07:08:52;5.55;;;5.10;;
23140;SDS011;11739;54.750;9.124;2023-05-07T07:11:17;5.90;;;5.40;;
23140;SDS011;11739;54.750;9.124;2023-05-07T07:13:42;8.27;;;5.57;;
23140;SDS011;11739;54.750;9.124;2023-05-07T07:16:08;5.90;;;5.40;;
23140;SDS011;11739;54.750;9.124;2023-05-07T07:18:33;7.18;;;5.60;;
23140;SDS011;11739;54.750;9.124;2023-05-07T07:20:58;5.82;;;5.30;;
23140;SDS011;11739;54.750;9.124;2023-05-07T07:23:24;8.95;;;5.82;;
23140;SDS011;11739;54.750;9.124;2023-05-07T07:25:49;5.80;;;5.28;;
23140;SDS011;11739;54.750;9.124;2023-05-07T07:28:14;6.43;;;5.35;;
23140;SDS011;11739;54.750;9.124;2023-05-07T07:30:39;6.05;;;5.40;;
23140;SDS011;11739;54.750;9.124;2023-05-07T07:33:05;5.93;;;5.43;;
23140;SDS011;11739;54.750;9.124;2023-05-07T07:35:31;5.53;;;5.00;;
23140;SDS011;11739;54.750;9.124;2023-05-07T07:37:56;7.22;;;5.45;;
23140;SDS011;11739;54.750;9.124;2023-05-07T07:40:22;6.28;;;5.70;;
23140;SDS011;11739;54.750;9.124;2023-05-07T07:42:47;5.65;;;5.15;;
23140;SDS011;11739;54.750;9.124;2023-05-07T07:45:12;5.72;;;5.22;;
23140;SDS011;11739;54.750;9.124;2023-05-07T07:47:38;6.80;;;6.10;;
23140;SDS011;11739;54.750;9.124;2023-05-07T07:50:04;6.15;;;5.57;;
23140;SDS011;11739;54.750;9.124;2023-05-07T07:52:30;5.75;;;5.22;;
23140;SDS011;11739;54.750;9.124;2023-05-07T07:54:55;6.47;;;5.43;;
23140;SDS011;11739;54.750;9.124;2023-05-07T07:57:20;6.00;;;5.35;;
23140;SDS011;11739;54.750;9.124;2023-05-07T07:59:46;7.05;;;5.47;;
23140;SDS011;11739;54.750;9.124;2023-05-07T08:02:11;6.47;;;5.72;;
23140;SDS011;11739;54.750;9.124;2023-05-07T08:04:36;5.93;;;5.35;;
23140;SDS011;11739;54.750;9.124;2023-05-07T08:07:02;5.93;;;5.32;;
23140;SDS011;11739;54.750;9.124;2023-05-07T08:09:27;5.63;;;5.13;;
23140;SDS011;11739;54.750;9.124;2023-05-07T08:11:52;5.13;;;4.70;;
23140;SDS011;11739;54.750;9.124;2023-05-07T08:14:18;5.32;;;4.93;;
23140;SDS011;11739;54.750;9.124;2023-05-07T08:16:43;5.80;;;5.30;;
23140;SDS011;11739;54.750;9.124;2023-05-07T08:19:08;5.20;;;4.70;;
23140;SDS011;11739;54.750;9.124;2023-05-07T08:21:34;5.10;;;4.65;;
23140;SDS011;11739;54.750;9.124;2023-05-07T08:23:59;5.70;;;5.10;;
23140;SDS011;11739;54.750;9.124;2023-05-07T08:26:24;5.30;;;4.80;;
23140;SDS011;11739;54.750;9.124;2023-05-07T08:28:49;5.75;;;4.72;;
23140;SDS011;11739;54.750;9.124;2023-05-07T08:31:15;5.15;;;4.65;;
23140;SDS011;11739;54.750;9.124;2023-05-07T08:33:40;5.45;;;4.95;;
23140;SDS011;11739;54.750;9.124;2023-05-07T08:36:05;4.68;;;4.28;;
23140;SDS011;11739;54.750;9.124;2023-05-07T08:38:31;5.15;;;4.35;;
23140;SDS011;11739;54.750;9.124;2023-05-07T08:40:56;6.63;;;5.05;;
23140;SDS011;11739;54.750;9.124;2023-05-07T08:43:21;5.50;;;5.00;;
23140;SDS011;11739;54.750;9.124;2023-05-07T08:45:48;4.72;;;4.32;;
23140;SDS011;11739;54.750;9.124;2023-05-07T08:48:15;5.68;;;5.18;;
23140;SDS011;11739;54.750;9.124;2023-05-07T08:50:41;5.63;;;4.88;;
23140;SDS011;11739;54.750;9.124;2023-05-07T08:53:06;5.40;;;4.93;;
23140;SDS011;11739;54.750;9.124;2023-05-07T08:55:31;6.25;;;4.93;;
23140;SDS011;11739;54.750;9.124;2023-05-07T08:57:57;5.50;;;4.30;;
23140;SDS011;11739;54.750;9.124;2023-05-07T09:00:22;7.05;;;5.00;;
23140;SDS011;11739;54.750;9.124;2023-05-07T09:02:48;5.53;;;4.95;;
23140;SDS011;11739;54.750;9.124;2023-05-07T09:05:13;5.38;;;4.85;;
23140;SDS011;11739;54.750;9.124;2023-05-07T09:07:39;5.35;;;4.85;;
23140;SDS011;11739;54.750;9.124;2023-05-07T09:10:04;5.63;;;5.05;;
23140;SDS011;11739;54.750;9.124;2023-05-07T09:12:30;5.07;;;4.68;;
23140;SDS011;11739;54.750;9.124;2023-05-07T09:14:55;5.10;;;4.60;;
23140;SDS011;11739;54.750;9.124;2023-05-07T09:17:21;5.63;;;5.00;;
23140;SDS011;11739;54.750;9.124;2023-05-07T09:19:46;7.82;;;4.78;;
23140;SDS011;11739;54.750;9.124;2023-05-07T09:22:12;5.60;;;5.00;;
23140;SDS011;11739;54.750;9.124;2023-05-07T09:24:37;5.00;;;4.60;;
23140;SDS011;11739;54.750;9.124;2023-05-07T09:27:03;4.95;;;4.45;;
23140;SDS011;11739;54.750;9.124;2023-05-07T09:29:29;4.97;;;4.22;;
23140;SDS011;11739;54.750;9.124;2023-05-07T09:31:54;6.53;;;4.35;;
23140;SDS011;11739;54.750;9.124;2023-05-07T09:34:20;4.97;;;4.40;;
23140;SDS011;11739;54.750;9.124;2023-05-07T09:36:45;5.03;;;4.55;;
23140;SDS011;11739;54.750;9.124;2023-05-07T09:39:11;4.22;;;3.88;;
23140;SDS011;11739;54.750;9.124;2023-05-07T09:41:46;6.20;;;4.03;;
23140;SDS011;11739;54.750;9.124;2023-05-07T09:44:12;6.40;;;4.20;;
23140;SDS011;11739;54.750;9.124;2023-05-07T09:46:39;6.43;;;4.32;;
23140;SDS011;11739;54.750;9.124;2023-05-07T09:49:07;5.63;;;4.50;;
23140;SDS011;11739;54.750;9.124;2023-05-07T09:54:05;5.35;;;4.18;;
23140;SDS011;11739;54.750;9.124;2023-05-07T09:56:30;7.03;;;4.13;;
23140;SDS011;11739;54.750;9.124;2023-05-07T09:58:56;6.35;;;4.07;;
23140;SDS011;11739;54.750;9.124;2023-05-07T10:01:23;4.10;;;3.70;;
23140;SDS011;11739;54.750;9.124;2023-05-07T10:03:49;5.63;;;4.53;;
23140;SDS011;11739;54.750;9.124;2023-05-07T10:06:15;4.40;;;4.00;;
23140;SDS011;11739;54.750;9.124;2023-05-07T10:08:40;4.70;;;4.30;;
23140;SDS011;11739;54.750;9.124;2023-05-07T10:11:07;4.45;;;4.00;;
23140;SDS011;11739;54.750;9.124;2023-05-07T10:13:33;7.70;;;4.32;;
23140;SDS011;11739;54.750;9.124;2023-05-07T10:15:58;4.60;;;4.20;;
23140;SDS011;11739;54.750;9.124;2023-05-07T10:18:24;4.28;;;3.75;;
23140;SDS011;11739;54.750;9.124;2023-05-07T10:20:51;5.78;;;4.47;;
23140;SDS011;11739;54.750;9.124;2023-05-07T10:23:18;9.40;;;3.70;;
23140;SDS011;11739;54.750;9.124;2023-05-07T10:25:45;5.38;;;3.78;;
23140;SDS011;11739;54.750;9.124;2023-05-07T10:28:11;4.47;;;4.07;;
23140;SDS011;11739;54.750;9.124;2023-05-07T10:33:03;7.43;;;3.67;;
23140;SDS011;11739;54.750;9.124;2023-05-07T10:35:30;5.13;;;3.58;;
23140;SDS011;11739;54.750;9.124;2023-05-07T10:37:56;4.53;;;4.07;;
23140;SDS011;11739;54.750;9.124;2023-05-07T10:40:21;3.85;;;3.40;;
23140;SDS011;11739;54.750;9.124;2023-05-07T10:42:56;6.68;;;3.80;;
23140;SDS011;11739;54.750;9.124;2023-05-07T10:45:22;4.25;;;3.92;;
23140;SDS011;11739;54.750;9.124;2023-05-07T10:50:37;4.57;;;4.10;;
23140;SDS011;11739;54.750;9.124;2023-05-07T10:55:50;4.10;;;3.67;;
23140;SDS011;11739;54.750;9.124;2023-05-07T10:58:23;4.70;;;3.90;;
23140;SDS011;11739;54.750;9.124;2023-05-07T11:00:55;5.35;;;3.60;;
23140;SDS011;11739;54.750;9.124;2023-05-07T11:03:24;4.35;;;4.00;;
23140;SDS011;11739;54.750;9.124;2023-05-07T11:06:08;5.13;;;3.40;;
23140;SDS011;11739;54.750;9.124;2023-05-07T11:08:54;4.40;;;4.00;;
23140;SDS011;11739;54.750;9.124;2023-05-07T11:17:05;8.55;;;3.90;;
23140;SDS011;11739;54.750;9.124;2023-05-07T11:19:50;5.60;;;3.83;;
23140;SDS011;11739;54.750;9.124;2023-05-07T11:24:59;5.75;;;3.67;;
23140;SDS011;11739;54.750;9.124;2023-05-07T11:27:24;6.32;;;3.50;;
23140;SDS011;11739;54.750;9.124;2023-05-07T11:29:51;3.78;;;3.47;;
23140;SDS011;11739;54.750;9.124;2023-05-07T11:32:22;4.82;;;4.05;;
23140;SDS011;11739;54.750;9.124;2023-05-07T11:34:50;3.88;;;3.58;;
23140;SDS011;11739;54.750;9.124;2023-05-07T11:37:17;4.07;;;3.63;;
23140;SDS011;11739;54.750;9.124;2023-05-07T11:39:42;3.58;;;3.00;;
23140;SDS011;11739;54.750;9.124;2023-05-07T11:42:19;3.83;;;3.33;;
23140;SDS011;11739;54.750;9.124;2023-05-07T11:44:50;3.72;;;3.42;;
23140;SDS011;11739;54.750;9.124;2023-05-07T11:47:18;3.75;;;2.92;;
23140;SDS011;11739;54.750;9.124;2023-05-07T11:49:48;3.45;;;3.00;;
23140;SDS011;11739;54.750;9.124;2023-05-07T11:52:14;3.55;;;3.25;;
23140;SDS011;11739;54.750;9.124;2023-05-07T11:54:40;4.50;;;3.20;;
23140;SDS011;11739;54.750;9.124;2023-05-07T11:57:05;5.78;;;3.08;;
23140;SDS011;11739;54.750;9.124;2023-05-07T11:59:37;3.67;;;2.90;;
23140;SDS011;11739;54.750;9.124;2023-05-07T12:02:03;4.93;;;3.08;;
23140;SDS011;11739;54.750;9.124;2023-05-07T12:04:29;3.83;;;3.00;;
23140;SDS011;11739;54.750;9.124;2023-05-07T12:06:55;4.20;;;3.00;;
23140;SDS011;11739;54.750;9.124;2023-05-07T12:09:20;3.10;;;2.80;;
23140;SDS011;11739;54.750;9.124;2023-05-07T12:11:46;4.25;;;2.97;;
23140;SDS011;11739;54.750;9.124;2023-05-07T12:14:11;3.38;;;3.08;;
23140;SDS011;11739;54.750;9.124;2023-05-07T12:16:36;4.30;;;2.95;;
23140;SDS011;11739;54.750;9.124;2023-05-07T12:19:01;4.50;;;2.92;;
23140;SDS011;11739;54.750;9.124;2023-05-07T12:21:27;3.10;;;2.90;;
23140;SDS011;11739;54.750;9.124;2023-05-07T12:23:52;2.67;;;2.47;;
23140;SDS011;11739;54.750;9.124;2023-05-07T12:26:19;2.63;;;2.42;;
23140;SDS011;11739;54.750;9.124;2023-05-07T12:28:44;3.15;;;2.47;;
23140;SDS011;11739;54.750;9.124;2023-05-07T12:31:10;2.90;;;2.60;;
23140;SDS011;11739;54.750;9.124;2023-05-07T12:33:36;2.70;;;2.50;;
23140;SDS011;11739;54.750;9.124;2023-05-07T12:36:07;2.70;;;2.50;;
23140;SDS011;11739;54.750;9.124;2023-05-07T12:38:34;2.97;;;2.75;;
23140;SDS011;11739;54.750;9.124;2023-05-07T12:41:00;4.40;;;2.63;;
23140;SDS011;11739;54.750;9.124;2023-05-07T12:43:26;4.35;;;2.67;;
23140;SDS011;11739;54.750;9.124;2023-05-07T12:45:56;4.82;;;2.80;;
23140;SDS011;11739;54.750;9.124;2023-05-07T12:48:22;3.95;;;2.50;;
23140;SDS011;11739;54.750;9.124;2023-05-07T12:50:52;5.15;;;2.75;;
23140;SDS011;11739;54.750;9.124;2023-05-07T12:53:25;2.92;;;2.60;;
23140;SDS011;11739;54.750;9.124;2023-05-07T12:55:51;4.43;;;2.90;;
23140;SDS011;11739;54.750;9.124;2023-05-07T12:58:24;2.53;;;2.30;;
23140;SDS011;11739;54.750;9.124;2023-05-07T13:00:53;2.75;;;2.40;;
23140;SDS011;11739;54.750;9.124;2023-05-07T13:03:22;3.45;;;2.60;;
23140;SDS011;11739;54.750;9.124;2023-05-07T13:08:24;2.30;;;2.10;;
23140;SDS011;11739;54.750;9.124;2023-05-07T13:10:53;2.80;;;2.60;;
23140;SDS011;11739;54.750;9.124;2023-05-07T13:13:18;3.50;;;2.80;;
23140;SDS011;11739;54.750;9.124;2023-05-07T13:15:44;3.58;;;2.22;;
23140;SDS011;11739;54.750;9.124;2023-05-07T13:18:09;2.63;;;2.42;;
23140;SDS011;11739;54.750;9.124;2023-05-07T13:20:34;2.67;;;2.47;;
23140;SDS011;11739;54.750;9.124;2023-05-07T13:23:00;2.97;;;2.45;;
23140;SDS011;11739;54.750;9.124;2023-05-07T13:25:25;5.32;;;2.60;;
23140;SDS011;11739;54.750;9.124;2023-05-07T13:27:50;3.05;;;2.65;;
23140;SDS011;11739;54.750;9.124;2023-05-07T13:30:16;2.67;;;2.47;;
23140;SDS011;11739;54.750;9.124;2023-05-07T13:32:41;3.83;;;2.60;;
23140;SDS011;11739;54.750;9.124;2023-05-07T13:35:06;2.50;;;2.28;;
23140;SDS011;11739;54.750;9.124;2023-05-07T13:37:32;2.53;;;2.33;;
23140;SDS011;11739;54.750;9.124;2023-05-07T13:40:00;3.53;;;2.13;;
23140;SDS011;11739;54.750;9.124;2023-05-07T13:42:25;6.55;;;2.70;;
23140;SDS011;11739;54.750;9.124;2023-05-07T13:44:50;2.38;;;2.15;;
23140;SDS011;11739;54.750;9.124;2023-05-07T13:47:16;2.55;;;2.35;;
23140;SDS011;11739;54.750;9.124;2023-05-07T13:49:41;10.43;;;3.17;;
23140;SDS011;11739;54.750;9.124;2023-05-07T13:52:06;3.38;;;2.83;;
23140;SDS011;11739;54.750;9.124;2023-05-07T13:54:32;3.88;;;2.58;;
23140;SDS011;11739;54.750;9.124;2023-05-07T13:56:57;2.92;;;2.05;;
23140;SDS011;11739;54.750;9.124;2023-05-07T13:59:22;2.67;;;2.20;;
23140;SDS011;11739;54.750;9.124;2023-05-07T14:01:48;5.10;;;2.45;;
23140;SDS011;11739;54.750;9.124;2023-05-07T14:04:13;2.85;;;2.45;;
23140;SDS011;11739;54.750;9.124;2023-05-07T14:06:38;3.75;;;2.25;;
23140;SDS011;11739;54.750;9.124;2023-05-07T14:09:03;3.80;;;2.33;;
23140;SDS011;11739;54.750;9.124;2023-05-07T14:11:29;3.50;;;2.40;;
23140;SDS011;11739;54.750;9.124;2023-05-07T14:13:54;3.40;;;2.30;;
23140;SDS011;11739;54.750;9.124;2023-05-07T14:16:19;3.38;;;2.28;;
23140;SDS011;11739;54.750;9.124;2023-05-07T14:18:45;4.60;;;2.17;;
23140;SDS011;11739;54.750;9.124;2023-05-07T14:21:10;3.38;;;2.15;;
23140;SDS011;11739;54.750;9.124;2023-05-07T14:23:35;3.30;;;2.10;;
23140;SDS011;11739;54.750;9.124;2023-05-07T14:26:01;2.80;;;2.30;;
23140;SDS011;11739;54.750;9.124;2023-05-07T14:28:26;4.25;;;2.30;;
23140;SDS011;11739;54.750;9.124;2023-05-07T14:30:51;3.58;;;2.22;;
23140;SDS011;11739;54.750;9.124;2023-05-07T14:33:16;3.33;;;2.00;;
23140;SDS011;11739;54.750;9.124;2023-05-07T14:35:42;3.40;;;2.15;;
23140;SDS011;11739;54.750;9.124;2023-05-07T14:38:07;3.58;;;2.22;;
23140;SDS011;11739;54.750;9.124;2023-05-07T14:40:32;4.45;;;2.42;;
23140;SDS011;11739;54.750;9.124;2023-05-07T14:42:58;7.75;;;2.10;;
23140;SDS011;11739;54.750;9.124;2023-05-07T14:45:23;3.17;;;2.25;;
23140;SDS011;11739;54.750;9.124;2023-05-07T14:47:48;2.75;;;2.20;;
23140;SDS011;11739;54.750;9.124;2023-05-07T14:50:14;4.13;;;2.50;;
23140;SDS011;11739;54.750;9.124;2023-05-07T14:52:39;4.88;;;2.30;;
23140;SDS011;11739;54.750;9.124;2023-05-07T14:55:04;5.78;;;2.78;;
23140;SDS011;11739;54.750;9.124;2023-05-07T14:57:30;3.88;;;2.80;;
23140;SDS011;11739;54.750;9.124;2023-05-07T14:59:55;5.53;;;2.70;;
23140;SDS011;11739;54.750;9.124;2023-05-07T15:02:20;7.80;;;2.85;;